Tuesday, October 21, 2014
18:30 UTC
  |  Log In   |  Register Free
Airport Search:

Pocono Mountains Municipal Airport
(KMPO)

Pocono Mountains Municipal Airport Diagram
No Airport Diagram Available

FAA data valid effective September 18, 2014 - November 13, 2014 (unless otherwise noted).

 
 
 
 
 
 
 
 
 
 
 
 
 
 

Current Aviation Weather for Pocono Mountains Municipal Airport (KMPO)

The most recent METAR observation for KMPO was updated at: 1821
METAR Summary (Translated METAR)
KMPO
211753Z AUTO 13007KT 10SM FEW013 BKN034 OVC065 12/08 A2985 RMK AO2 SLP110 6//// T01220083 10122 20089 58010 TSNO PNO $
KAVP
211754Z 26004KT 10SM OVC070 15/08 A2983 RMK AO2 SLP100 T01500083 10156 20106 58010
(19.6 nm NW from KMPO)
KHZL
211755Z AUTO 34004KT 10SM BKN022 OVC032 13/08 A2986 RMK AO2
(29.3 nm SW from KMPO)
TAF Summary (Translated TAF)
KAVP
(19.6 nm NW from KMPO)
211731Z 2118/2218 24003KT P6SM -SHRA SCT025 OVC045 TEMPO 2122/2202 OVC025 FM220200 VRB03KT P6SM -SHRA OVC025 FM220600 02004KT 4SM BR OVC015 FM221500 03006KT P6SM OVC015
  Airport Weather Conditions for KMPO

 Current Weather at MPO
54° F
Overcast
Southeast winds at 8.1 mph
MPO NOAA Radar

Pressure: 29.85 in
Humidity: 77%
Wind: Southeast at 8.1 MPH (7 KT)
Dew Point: 46.9°F
Visibility: 10.00 mi


Airport Weather Forecast for KMPO

Translated METAR and TAF for KMPO
Translated METAR for KMPO (1825 UTC 21 October 2014)
found at http://aviationweather.gov/adds/metars/
 
METAR text: KMPO 211753Z AUTO 13007KT 10SM FEW013 BKN034 OVC065 12/08 A2985 RMK AO2 SLP110 6//// T01220083 10122 20089 58010 TSNO PNO $
Conditions at: KMPO (MT. POCONO , PA, US) observed 1753 UTC 21 October 2014
Temperature: 12.2°C (54°F)
Dewpoint: 8.3°C (47°F) [RH = 77%]
Pressure (altimeter): 29.85 inches Hg (1010.9 mb)
[Sea-level pressure: 1011.0 mb]
Winds: from the SE (130 degrees) at 8 MPH (7 knots; 3.6 m/s)
Visibility: 10 or more miles (16+ km)
Ceiling: 3400 feet AGL
Clouds: few clouds at 1300 feet AGL
broken clouds at 3400 feet AGL
overcast cloud deck at 6500 feet AGL
Weather:
SOME DATA ABOVE MAY BE INACCURATE!!!
"$" is an indication the sensor requires maintenance
Translated TAF for KMPO

There is no translated TAF available for this airport

Find All Airport Services Find A Hotel Find A Rental Car Find A Golf Course Find A Restaurant $100 Hamburger



FBO's on the Field
FBO Company Facility Photos Services Transportation Aviation Fuel Prices: Prices include tax
Catering Weather Repair Courtesy Rental Type 100LL JetA JetA+ MOGAS 8087
 
Pocono Mountains Municipal Airport Authority

This FBO has not yet been rated
FS: Phillips 66
Last Updated: Oct-13
Login to update fuel prices
SS:
Contact Pocono Mountains Municipal Airport AuthorityMore FBO Information
 
Add another FBO Facility Photos Catering Weather Repair Courtesy Rental Type 100LL JetA JetA+ MOGAS 8087
Services Transportation Aviation Fuel Prices: Prices include tax


model-print
model-print
model-print
model-print